HKJKHTDO

Guest
Details From HKJK - Nairobi Jomo Kanyatta Intl
To HTDO - DODOMA
Flight Number -
Tags generated
Created
Modified
Stats Distance 303 nm / 561 km
Max Altitude 34,000 ft / 10,363 m
Waypoints 6
Social Downloads 1
Likes 0
Share

Download

Looking for another format? Having issues loading an existing format? Contact us
Advertisement - Login to hide

Notes

Basic altitude profile: - Ascent Rate: 2500ft/min - Ascent Speed: 250kts - Cruise Altitude: 35000ft - Cruise Speed: 420kts - Descent Rate: 1500ft/min - Descent Speed: 250kts Options: - Use NATs: yes - Use PACOTS: yes - Use low airways: yes - Use high airways: yes

Route

HKJK EVATO UA405 LOSIN UR409 ITSOK HTDO

ID Type Via Altitude (ft/m) Position (lat/lon) Dist (leg/tot) Name
O HKJK APT - 0 / 0 -1.31707 / 36.93076 - / 0 nm Nairobi Jomo Kanyatta Intl
EVATO FIX - 24,800 / 7,559 -2.37865 / 36.46605 69 / 69 nm
LOSIN FIX UA405 (AWY-HI) 34,000 / 10,363 -3.13330 / 36.12215 49 / 119 nm
AVETA FIX UR409 (AWY-HI) 32,200 / 9,815 -3.68048 / 36.05437 33 / 152 nm
ITSOK FIX UR409 (AWY-HI) 24,500 / 7,468 -4.48235 / 35.95576 48 / 201 nm
O HTDO APT - 0 / 0 -6.17043 / 35.75258 102 / 303 nm DODOMA

Altitude Profile

Advertisement - Login to hide

Weather


0- 5 10 15 20 25 30 35+ Temperature / °C

Clouds and Precipitation
Forecast for 2021-03-22 12:00 UTC. Updated 2 months ago

Ground ~20,000 ft ~40,000 ft Winds

HKJK

Details ICAO HKJK (NBO)
Name Nairobi-Jomo Kenyatta Intl
Region Kenya
Timezone Africa/Nairobi (UTC+3.0)
Stats Elevation 5,330 ft / 1,625 m (AMSL)
Location -1.316650° 36.931300°
Runways 1
Magnetic Variation 0.696° E

METAR

HKJK 120100Z 19005KT 9999 RA SCT009 BKN016 OVC070 16/15 Q1022 NOSIG

Decode

TAF

TAF TAF HKJK 111700Z 1118/1224 VRB05KT 9999 SCT020 BKN080 TEMPO1118/1122 -RA FEW007 BKN018 BKN080 BECMG 1206/1210 16010KT NSW BKN025 TEMPO 1213/1217 -SHRA FEW022CB BKN023 BKN080 BECMG 1220/1123 12010KT -RA SCT020 BKN080

Decode

Departure Runways

ID Width Length Bearing (true/mag) Surface Threshold Overrun Markings Lighting
06 148 ft / 45 m 13,528 ft / 4,123 m 53.83° / 53.13° ASPHALT 0 ft / 0 m 194 ft / 59 m PREC-APP CENTERLINE EDGE THRESHOLD ALSF-I REIL-OMNI
24 148 ft / 45 m 13,528 ft / 4,123 m 233.83° / 233.13° ASPHALT 0 ft / 0 m 197 ft / 60 m PREC-APP CENTERLINE EDGE THRESHOLD MALS REIL-OMNI

HTDO

Details ICAO HTDO (DOD)
Name Dodoma
Region Tanzania
Timezone Africa/Dar_es_Salaam (UTC+3.0)
Stats Elevation 3,696 ft / 1,127 m (AMSL)
Location -6.170510° 35.754900°
Runways 1
Magnetic Variation 0.845° W

METAR

HTDO 120000Z 09010KT 9999 FEW017 18/13 Q1020 NOSIG

Decode

TAF

HTDO 111700Z 1118/1218 09010KT 9999 FEW025 SCT080

Decode

Destination Runways

ID Width Length Bearing (true/mag) Surface Threshold Overrun Markings Lighting
09 98 ft / 30 m 8,203 ft / 2,500 m 91.50° / 92.35° ASPHALT 0 ft / 0 m 0 ft / 0 m PREC-APP EDGE THRESHOLD
27 98 ft / 30 m 8,203 ft / 2,500 m 271.50° / 272.35° ASPHALT 0 ft / 0 m 0 ft / 0 m VISUAL EDGE THRESHOLD

Popular Alternatives